Time;durP1;ratioP1;P1;durP2;ratioP2;P2;SDS_P1;SDS_P2;PMS_P1;PMS_P2;Temp;Humidity;BMP_temperature;BMP_pressure;BME280_temperature;BME280_humidity;BME280_pressure;Samples;Min_cycle;Max_cycle;Signal;HPM_P1;HPM_P2
2021/10/09 00:01:00;;;;;;;125.00;49.78;;;;;;;2.05;72.53;101925.69;5114384;27;20127;-74
2021/10/09 00:03:26;;;;;;;126.15;50.05;;;;;;;2.06;71.97;101926.56;5123243;27;20035;-73
2021/10/09 00:05:52;;;;;;;126.07;48.78;;;;;;;2.02;71.54;101923.09;5122634;27;20048;-73
2021/10/09 00:08:18;;;;;;;122.13;49.70;;;;;;;1.98;72.36;101931.84;5116985;27;20050;-74
2021/10/09 00:10:45;;;;;;;124.70;50.03;;;;;;;1.92;72.29;101924.03;5117190;27;20043;-74
2021/10/09 00:13:11;;;;;;;127.05;50.80;;;;;;;1.89;71.88;101918.81;5117769;27;20890;-73
2021/10/09 00:15:37;;;;;;;123.18;48.53;;;;;;;1.90;72.29;101925.78;5122343;27;20042;-72
2021/10/09 00:18:03;;;;;;;127.95;47.97;;;;;;;1.83;72.65;101918.84;5120263;27;20412;-72
2021/10/09 00:20:30;;;;;;;120.55;46.03;;;;;;;1.83;71.95;101921.44;5126708;27;20137;-72
2021/10/09 00:22:56;;;;;;;120.80;46.15;;;;;;;1.79;72.33;101928.41;5126528;27;20142;-73
2021/10/09 00:25:23;;;;;;;123.60;47.45;;;;;;;1.65;72.51;101925.88;5122471;27;20043;-73
2021/10/09 00:27:49;;;;;;;129.45;48.70;;;;;;;1.62;72.75;101925.91;5133269;27;20046;-74
2021/10/09 00:30:15;;;;;;;105.85;42.75;;;;;;;1.61;72.60;101919.78;5127590;27;20039;-72
2021/10/09 00:32:40;;;;;;;117.30;46.22;;;;;;;1.59;72.72;101913.69;5114941;28;20584;-73
2021/10/09 00:35:06;;;;;;;112.10;45.97;;;;;;;1.59;72.40;101920.66;5118308;27;20053;-73
2021/10/09 00:37:32;;;;;;;121.28;46.80;;;;;;;1.61;73.02;101914.56;5124058;27;20526;-71
2021/10/09 00:39:58;;;;;;;112.35;45.00;;;;;;;1.57;72.33;101918.06;5117148;27;20039;-73
2021/10/09 00:42:24;;;;;;;111.88;44.40;;;;;;;1.58;72.84;101916.31;5124010;27;20122;-70
2021/10/09 00:44:50;;;;;;;119.15;46.25;;;;;;;1.60;72.56;101917.19;5131238;27;20054;-71
2021/10/09 00:47:16;;;;;;;109.82;46.13;;;;;;;1.59;72.83;101911.09;5115726;27;20050;-71
2021/10/09 00:49:42;;;;;;;117.28;44.28;;;;;;;1.59;73.19;101912.84;5122457;27;20042;-73
2021/10/09 00:52:10;;;;;;;110.70;43.58;;;;;;;1.56;73.07;101911.13;5118855;27;20046;-71
2021/10/09 00:54:43;;;;;;;107.07;41.15;;;;;;;1.55;72.63;101903.31;5127780;27;20040;-74
2021/10/09 00:57:10;;;;;;;110.28;42.10;;;;;;;1.55;72.62;101905.91;5120170;27;20050;-72
2021/10/09 00:59:36;;;;;;;117.80;45.35;;;;;;;1.53;72.92;101903.28;5119404;27;20134;-73
2021/10/09 01:02:03;;;;;;;118.45;43.03;;;;;;;1.53;73.18;101905.03;5123272;27;20436;-73
2021/10/09 01:04:31;;;;;;;104.10;41.15;;;;;;;1.50;73.12;101899.84;5124748;27;20068;-73
2021/10/09 01:06:57;;;;;;;;;;;;;;;1.51;73.14;101898.97;5112754;27;20047;-73
2021/10/09 01:09:23;;;;;;;106.60;41.10;;;;;;;1.51;73.12;101901.56;5116939;27;19920;-73
2021/10/09 01:11:50;;;;;;;114.03;40.92;;;;;;;1.50;73.10;101895.50;5120893;27;20058;-73
2021/10/09 01:14:16;;;;;;;98.65;39.15;;;;;;;1.48;73.27;101901.59;5114499;27;20047;-72
2021/10/09 01:16:43;;;;;;;111.18;42.03;;;;;;;1.45;73.27;101900.72;5121083;27;20031;-73
2021/10/09 01:19:09;;;;;;;110.30;40.70;;;;;;;1.45;72.71;101892.88;5117858;27;20047;-73
2021/10/09 01:21:42;;;;;;;97.75;38.20;;;;;;;1.43;72.91;101894.66;5126608;27;20035;-73
2021/10/09 01:24:09;;;;;;;97.95;37.38;;;;;;;1.40;72.83;101894.66;5119929;27;20046;-74
2021/10/09 01:26:35;;;;;;;98.63;38.30;;;;;;;1.38;72.46;101893.78;5114102;27;20404;-75
2021/10/09 01:29:07;;;;;;;107.25;41.97;;;;;;;1.38;73.20;101885.94;5124892;27;20095;-72
2021/10/09 01:31:34;;;;;;;97.05;39.70;;;;;;;1.25;72.84;101894.72;5130063;27;20373;-74
2021/10/09 01:34:02;;;;;;;105.63;38.88;;;;;;;1.25;73.48;101894.72;5115603;27;20040;-73
2021/10/09 01:36:33;;;;;;;97.00;38.95;;;;;;;1.25;73.40;101894.72;5125942;27;20051;-77
2021/10/09 01:38:59;;;;;;;102.80;39.03;;;;;;;1.22;72.74;101892.09;5112716;27;20035;-75
2021/10/09 01:41:39;;;;;;;108.45;38.38;;;;;;;1.21;72.77;101890.34;5113497;27;20063;-72
2021/10/09 01:44:05;;;;;;;101.70;39.17;;;;;;;1.20;73.08;101891.25;5112190;27;20047;-74
2021/10/09 01:46:31;;;;;;;98.22;38.20;;;;;;;1.21;73.26;101890.34;5117892;27;20036;-74
2021/10/09 01:48:57;;;;;;;99.45;37.83;;;;;;;1.19;72.84;101889.50;5110222;28;20038;-73
2021/10/09 01:51:25;;;;;;;98.90;37.95;;;;;;;1.16;72.65;101890.38;5116295;27;20035;-73
2021/10/09 01:53:51;;;;;;;;;;;;;;;1.15;73.37;101892.97;5118680;27;20028;-73
2021/10/09 01:56:18;;;;;;;98.28;36.42;;;;;;;1.13;72.67;101887.75;5119136;27;19922;-70
2021/10/09 01:58:44;;;;;;;92.13;36.65;;;;;;;1.11;73.08;101887.78;5111702;28;20061;-72
2021/10/09 02:01:17;;;;;;;87.85;36.45;;;;;;;1.10;72.59;101886.03;5124072;27;20046;-73
2021/10/09 02:03:43;;;;;;;93.35;37.53;;;;;;;1.10;72.68;101886.03;5112353;27;20039;-72
2021/10/09 02:06:10;;;;;;;98.72;37.17;;;;;;;1.10;72.96;101883.44;5112279;27;20035;-73
2021/10/09 02:08:36;;;;;;;99.90;37.58;;;;;;;1.08;73.71;101892.97;5111013;27;20044;-74
2021/10/09 02:11:07;;;;;;;89.05;37.08;;;;;;;1.06;73.57;101889.53;5114577;28;20065;-71
2021/10/09 02:27:05;;;;;;;102.20;38.35;;;;;;;0.93;73.82;101874.78;5041294;28;20044;-73
2021/10/09 02:29:32;;;;;;;105.50;37.50;;;;;;;0.89;73.17;101875.66;5072784;28;20056;-72
2021/10/09 02:31:58;;;;;;;91.93;34.53;;;;;;;0.89;73.63;101878.25;5071339;28;20055;-72
2021/10/09 02:34:25;;;;;;;97.07;35.38;;;;;;;0.88;73.31;101879.13;5070391;28;20048;-73
2021/10/09 02:36:50;;;;;;;93.15;35.38;;;;;;;0.86;73.32;101873.94;5073388;28;20035;-71
2021/10/09 02:39:17;;;;;;;95.97;37.90;;;;;;;0.86;73.25;101873.03;5076232;28;20446;-73
2021/10/09 02:41:43;;;;;;;94.38;36.33;;;;;;;0.85;73.25;101873.91;5077691;28;20095;-72
2021/10/09 02:44:09;;;;;;;93.90;36.42;;;;;;;0.83;73.73;101870.44;5084198;28;20474;-73
2021/10/09 02:46:36;;;;;;;96.22;35.50;;;;;;;0.80;73.76;101882.59;5072444;28;20114;-72
2021/10/09 02:49:02;;;;;;;103.38;37.28;;;;;;;0.75;73.67;101873.06;5086995;28;20669;-72
2021/10/09 02:51:28;;;;;;;97.75;36.35;;;;;;;0.68;74.07;101872.19;5088302;28;20082;-72
2021/10/09 02:53:53;;;;;;;113.15;39.42;;;;;;;0.63;73.76;101868.72;5077635;28;20055;-71
2021/10/09 02:56:20;;;;;;;102.38;36.53;;;;;;;0.62;74.28;101867.88;5092423;28;20042;-73
2021/10/09 02:58:45;;;;;;;96.35;37.55;;;;;;;0.60;74.20;101866.13;5077955;28;20079;-72
2021/10/09 03:01:13;;;;;;;96.85;37.00;;;;;;;0.58;74.19;101868.72;5090785;28;20055;-72
2021/10/09 03:03:39;;;;;;;93.43;34.80;;;;;;;0.58;74.20;101860.91;5126801;27;20473;-74
2021/10/09 03:06:05;;;;;;;105.43;37.03;;;;;;;0.56;74.15;101860.06;5117158;27;20108;-72
2021/10/09 03:08:33;;;;;;;99.22;36.30;;;;;;;0.54;74.33;101859.19;5130386;27;20047;-72
2021/10/09 03:11:01;;;;;;;92.75;36.33;;;;;;;0.56;74.00;101861.78;5118097;27;20142;-72
2021/10/09 03:13:28;;;;;;;109.50;38.38;;;;;;;0.56;74.11;101856.56;5112635;28;20087;-72
2021/10/09 03:15:54;;;;;;;89.72;35.10;;;;;;;0.55;74.37;101852.22;5122145;27;20062;-71
2021/10/09 03:18:19;;;;;;;97.35;39.25;;;;;;;0.53;74.18;101860.03;5133226;27;20054;-74
2021/10/09 03:20:46;;;;;;;102.97;38.17;;;;;;;0.48;74.14;101852.22;5122427;27;20083;-72
2021/10/09 03:23:13;;;;;;;109.55;39.45;;;;;;;0.47;74.28;101858.31;5141443;27;20046;-73
2021/10/09 03:25:39;;;;;;;115.53;37.75;;;;;;;0.46;74.23;101861.78;5113562;27;20039;-73
2021/10/09 03:28:07;;;;;;;102.07;36.92;;;;;;;0.47;74.57;101862.63;5123735;27;20535;-73
2021/10/09 03:30:34;;;;;;;108.32;38.17;;;;;;;0.44;74.17;101863.50;5132931;27;20043;-76
2021/10/09 03:33:00;;;;;;;129.73;41.33;;;;;;;0.43;74.36;101859.16;5129541;27;20125;-74
2021/10/09 03:35:26;;;;;;;115.47;40.28;;;;;;;0.43;74.66;101845.28;5122839;27;20046;-74
2021/10/09 03:37:52;;;;;;;108.95;40.35;;;;;;;0.44;74.41;101850.50;5130898;27;20043;-72
2021/10/09 03:40:21;;;;;;;;;;;;;;;0.45;74.86;101853.97;5133369;27;20047;-73
2021/10/09 03:42:52;;;;;;;109.70;38.47;;;;;;;0.44;74.35;101840.06;5112775;28;19916;-73
2021/10/09 03:45:26;;;;;;;107.97;39.20;;;;;;;0.46;74.61;101845.28;5118381;27;20081;-74
2021/10/09 03:52:47;;;;;;;97.25;35.83;;;;;;;0.48;74.55;101847.00;5126530;27;20103;-72
2021/10/09 03:55:17;;;;;;;102.78;36.47;;;;;;;0.54;74.97;101853.13;5123433;27;20044;-72
2021/10/09 03:57:47;;;;;;;89.82;35.13;;;;;;;0.70;74.55;101847.03;5118343;27;20047;-73
2021/10/09 04:00:16;;;;;;;112.80;35.60;;;;;;;1.15;73.80;101849.56;5130355;27;20047;-74
2021/10/09 04:02:45;;;;;;;81.45;31.95;;;;;;;1.68;72.58;101847.59;5127544;27;20039;-73
2021/10/09 04:05:13;;;;;;;83.47;31.08;;;;;;;2.15;70.68;101844.72;5115016;27;20050;-73
2021/10/09 04:07:40;;;;;;;73.65;27.95;;;;;;;2.62;68.58;101846.09;5110797;27;20035;-72
2021/10/09 04:10:07;;;;;;;81.32;29.20;;;;;;;3.20;66.69;101842.03;5113339;27;20055;-72
2021/10/09 04:12:34;;;;;;;68.20;26.83;;;;;;;3.78;64.49;101833.50;5111837;27;20051;-73
2021/10/09 04:15:00;;;;;;;68.28;27.40;;;;;;;4.44;62.32;101839.50;5095046;28;20045;-74
2021/10/09 04:17:26;;;;;;;68.35;27.00;;;;;;;5.10;60.14;101832.19;5115821;27;20411;-74
2021/10/09 04:19:52;;;;;;;69.25;29.50;;;;;;;5.74;58.15;101837.00;5130818;27;20046;-75
2021/10/09 04:22:18;;;;;;;70.43;27.38;;;;;;;6.29;56.29;101830.53;5132024;27;20050;-74
2021/10/09 04:24:44;;;;;;;67.68;27.10;;;;;;;6.67;54.56;101830.47;5128502;27;20154;-74
2021/10/09 04:27:10;;;;;;;62.53;25.45;;;;;;;7.23;53.59;101835.09;5120982;27;20388;-75
2021/10/09 04:29:36;;;;;;;78.00;28.73;;;;;;;7.75;51.17;101834.47;5122867;27;20070;-73
2021/10/09 04:32:02;;;;;;;57.97;26.08;;;;;;;8.51;49.52;101827.69;5111523;28;20503;-76
2021/10/09 04:34:28;;;;;;;66.40;27.27;;;;;;;9.34;47.39;101838.88;5111993;28;20048;-75
2021/10/09 04:36:58;;;;;;;61.88;27.10;;;;;;;10.01;45.62;101839.88;5111325;27;20138;-74
2021/10/09 04:39:28;;;;;;;71.55;29.48;;;;;;;10.61;44.04;101826.00;5133090;27;20039;-75
2021/10/09 04:41:56;;;;;;;76.70;30.00;;;;;;;11.33;42.80;101832.56;5127366;27;20122;-74
2021/10/09 04:44:22;;;;;;;67.32;28.00;;;;;;;11.88;41.53;101839.72;5120723;27;20121;-75
2021/10/09 04:46:50;;;;;;;68.25;30.05;;;;;;;12.37;40.57;101830.34;5129760;27;20713;-75
2021/10/09 04:49:17;;;;;;;62.63;28.50;;;;;;;12.90;39.33;101834.72;5120854;27;20072;-75
2021/10/09 04:51:43;;;;;;;58.60;28.98;;;;;;;13.49;37.78;101841.41;5122993;27;20100;-75
2021/10/09 04:54:09;;;;;;;63.85;30.02;;;;;;;14.03;36.57;101831.31;5129717;27;20051;-75
2021/10/09 04:56:35;;;;;;;66.88;29.33;;;;;;;14.26;35.39;101831.78;5126928;27;20121;-76
2021/10/09 04:59:04;;;;;;;63.35;29.33;;;;;;;14.39;35.07;101830.13;5121033;27;20073;-75
2021/10/09 05:01:31;;;;;;;70.85;30.17;;;;;;;14.71;34.21;101830.03;5123011;27;20118;-74
2021/10/09 05:03:58;;;;;;;65.60;31.70;;;;;;;15.37;33.10;101835.78;5111793;27;20423;-73
2021/10/09 05:06:24;;;;;;;64.43;30.75;;;;;;;15.60;32.41;101830.84;5119792;27;20078;-75
2021/10/09 05:08:50;;;;;;;75.50;32.67;;;;;;;15.35;32.47;101831.50;5122157;27;20031;-76
2021/10/09 05:11:18;;;;;;;67.75;31.02;;;;;;;15.73;31.86;101825.56;5117079;27;20043;-76
2021/10/09 05:13:43;;;;;;;78.50;32.88;;;;;;;16.54;30.83;101826.53;5110933;27;20421;-75
2021/10/09 05:16:10;;;;;;;74.65;33.80;;;;;;;17.20;29.85;101833.66;5114511;27;20106;-73
2021/10/09 05:18:36;;;;;;;61.03;30.95;;;;;;;17.94;28.63;101829.22;5117192;27;20602;-74
2021/10/09 05:21:03;;;;;;;67.40;33.78;;;;;;;18.36;28.11;101833.31;5110093;27;20074;-73
2021/10/09 05:23:31;;;;;;;69.72;32.35;;;;;;;17.71;28.13;101828.19;5121866;27;20083;-72
2021/10/09 05:25:58;;;;;;;69.80;34.33;;;;;;;16.80;29.24;101826.56;5128504;27;20059;-74
2021/10/09 05:28:47;;;;;;;74.90;35.30;;;;;;;16.57;29.96;101828.97;5104208;27;20732;-73
2021/10/09 05:31:24;;;;;;;89.75;39.08;;;;;;;16.50;30.45;101836.56;5106631;27;20047;-73
2021/10/09 05:33:53;;;;;;;85.43;37.92;;;;;;;16.60;30.09;101831.44;5115958;27;20042;-73
2021/10/09 05:36:20;;;;;;;77.57;37.85;;;;;;;16.45;30.50;101836.00;5119996;27;20517;-74
2021/10/09 05:38:47;;;;;;;82.78;36.22;;;;;;;17.05;29.41;101833.75;5119895;27;20253;-73
2021/10/09 05:41:13;;;;;;;68.50;33.88;;;;;;;17.73;28.52;101825.41;5117863;27;20459;-74
2021/10/09 05:43:46;;;;;;;64.63;32.05;;;;;;;17.56;28.78;101830.16;5117633;27;20070;-73
2021/10/09 05:46:12;;;;;;;69.53;35.40;;;;;;;17.23;28.49;101828.91;5119893;27;20110;-73
2021/10/09 05:48:40;;;;;;;66.03;34.85;;;;;;;18.01;28.31;101828.78;5115756;27;20442;-74
2021/10/09 05:51:12;;;;;;;63.35;32.92;;;;;;;18.24;27.58;101835.94;5117943;27;20047;-74
2021/10/09 05:54:05;;;;;;;66.10;34.40;;;;;;;18.24;27.79;101835.06;5111428;27;20041;-74
2021/10/09 05:56:52;;;;;;;63.08;34.20;;;;;;;18.47;27.38;101841.38;5120426;27;20047;-73
2021/10/09 06:32:16;;;;;;;66.35;34.03;;;;;;;21.22;24.31;101826.31;5116556;27;20040;-76
2021/10/09 06:59:58;;;;;;;75.25;36.80;;;;;;;23.29;23.12;101819.97;5036167;28;20076;-74
2021/10/09 07:02:25;;;;;;;70.15;35.85;;;;;;;23.27;22.73;101809.28;5030599;28;20041;-77
2021/10/09 07:04:52;;;;;;;71.50;35.38;;;;;;;23.63;22.35;101816.66;5035766;28;20049;-77
2021/10/09 07:07:19;;;;;;;59.10;33.25;;;;;;;23.51;22.45;101817.84;5050265;28;20056;-79
2021/10/09 07:10:09;;;;;;;70.65;34.72;;;;;;;24.03;22.08;101812.69;5039597;28;20525;-78
2021/10/09 07:12:35;;;;;;;79.07;38.35;;;;;;;24.89;21.29;101806.78;5056243;28;20074;-77
2021/10/09 07:15:01;;;;;;;77.18;36.38;;;;;;;25.51;20.79;101806.59;5054603;28;20099;-79
2021/10/09 07:17:27;;;;;;;70.30;37.28;;;;;;;25.20;20.35;101807.09;5040986;28;20553;-77
2021/10/09 07:19:53;;;;;;;69.70;37.00;;;;;;;24.68;21.49;101811.53;5034985;28;20450;-79
2021/10/09 07:22:20;;;;;;;69.85;34.83;;;;;;;24.34;21.60;101806.88;4996713;28;20124;-79
2021/10/09 07:24:46;;;;;;;71.75;35.17;;;;;;;24.54;21.73;101799.41;5055970;27;20047;-78
2021/10/09 07:27:12;;;;;;;65.57;35.00;;;;;;;25.38;21.00;101798.91;5097684;28;20047;-81
2021/10/09 07:29:38;;;;;;;76.18;36.33;;;;;;;26.04;20.23;101809.88;5086511;28;20131;-79
2021/10/09 07:32:04;;;;;;;57.28;32.35;;;;;;;25.56;20.49;101806.94;5112094;27;20043;-80
2021/10/09 07:34:33;;;;;;;83.50;39.07;;;;;;;25.75;20.83;101807.66;5127976;27;20039;-79
2021/10/09 07:36:59;;;;;;;59.10;32.13;;;;;;;26.53;19.60;101805.50;5100468;27;20051;-79
2021/10/09 07:39:25;;;;;;;64.70;33.30;;;;;;;26.69;19.47;101797.31;5116378;27;20620;-83
2021/10/09 07:41:54;;;;;;;60.50;31.60;;;;;;;26.94;19.44;101791.84;5116157;27;20035;-81
2021/10/09 07:44:21;;;;;;;59.92;32.92;;;;;;;27.29;19.00;101789.69;5097855;28;20047;-80
2021/10/09 07:46:48;;;;;;;;;;;;;;;27.99;18.36;101795.22;5080170;28;20693;-83
2021/10/09 07:49:14;;;;;;;67.07;31.63;;;;;;;28.53;18.09;101781.50;5096499;28;19920;-82
2021/10/09 07:51:39;;;;;;;57.72;30.98;;;;;;;29.33;17.42;101783.72;5113162;28;20543;-81
2021/10/09 07:54:05;;;;;;;69.47;35.90;;;;;;;29.98;16.95;101778.31;5113532;28;20077;-84
2021/10/09 07:56:31;;;;;;;58.28;31.13;;;;;;;29.81;17.08;101773.13;5114856;28;20046;-80
2021/10/09 07:58:57;;;;;;;61.90;29.42;;;;;;;30.40;16.34;101775.75;5114756;28;20511;-78
2021/10/09 08:01:23;;;;;;;49.20;25.60;;;;;;;30.92;15.99;101768.13;5114683;28;20499;-81
2021/10/09 08:03:48;;;;;;;45.20;26.97;;;;;;;30.97;15.62;101765.59;5114022;28;20074;-82
2021/10/09 08:06:14;;;;;;;65.47;38.10;;;;;;;30.53;16.17;101764.09;5130933;27;20385;-80
2021/10/09 08:08:40;;;;;;;49.03;24.27;;;;;;;30.77;15.53;101769.06;5115227;28;20081;-82
2021/10/09 08:11:07;;;;;;;36.37;19.07;;;;;;;30.06;15.42;101764.56;5096761;28;20043;-83
2021/10/09 08:13:33;;;;;;;31.80;17.17;;;;;;;30.64;15.10;101764.38;5079816;28;20488;-80
2021/10/09 08:15:58;;;;;;;38.57;17.33;;;;;;;30.66;14.23;101772.38;5115110;28;20052;-82
2021/10/09 08:18:24;;;;;;;29.53;16.63;;;;;;;28.94;14.51;101773.97;5114252;28;20104;-84
2021/10/09 08:21:25;;;;;;;59.80;32.33;;;;;;;28.27;15.73;101765.59;5113856;28;20044;-82
2021/10/09 08:26:55;;;;;;;28.25;14.65;;;;;;;30.28;14.41;101762.66;5114532;27;20054;-84
2021/10/09 08:40:23;;;;;;;25.60;13.32;;;;;;;29.12;14.89;101762.66;5112568;28;20047;-78
2021/10/09 08:42:49;;;;;;;39.60;18.03;;;;;;;29.32;14.27;101763.78;5129067;27;20123;-86
2021/10/09 08:45:15;;;;;;;31.50;15.88;;;;;;;29.58;14.07;101761.53;5095863;28;20519;-83
2021/10/09 08:47:43;;;;;;;23.77;13.93;;;;;;;30.14;14.19;101756.22;5114167;28;20044;-84
2021/10/09 08:50:11;;;;;;;45.35;18.23;;;;;;;30.76;13.12;101753.72;5095557;28;20420;-84
2021/10/09 08:52:53;;;;;;;28.77;14.57;;;;;;;31.06;13.32;101753.44;5080127;28;20432;-84
2021/10/09 08:55:24;;;;;;;21.17;12.68;;;;;;;31.27;12.67;101754.41;5111644;28;20078;-82
2021/10/09 08:57:55;;;;;;;18.80;10.73;;;;;;;30.28;13.76;101757.19;5097544;28;20503;-84
2021/10/09 09:04:03;;;;;;;33.42;16.15;;;;;;;29.81;13.74;101753.19;5050226;28;20122;-83
2021/10/09 09:09:26;;;;;;;23.00;11.65;;;;;;;28.82;14.47;101749.91;5036293;28;20171;-85
2021/10/09 09:40:17;;;;;;;32.42;14.93;;;;;;;28.33;15.01;101724.03;5073985;28;20877;-82
2021/10/09 09:42:49;;;;;;;34.72;13.55;;;;;;;28.84;15.16;101722.50;5112042;28;20047;-80
2021/10/09 09:45:23;;;;;;;20.70;11.65;;;;;;;29.25;14.75;101718.34;5078322;28;20480;-82
2021/10/09 09:47:53;;;;;;;21.67;11.85;;;;;;;29.11;14.69;101720.94;5111732;28;20047;-82
2021/10/09 09:50:19;;;;;;;24.60;12.70;;;;;;;28.91;14.79;101722.56;5129151;27;20484;-84
2021/10/09 09:52:46;;;;;;;42.38;20.00;;;;;;;28.91;14.91;101717.13;5061159;28;20108;-82
2021/10/09 09:55:15;;;;;;;23.55;13.35;;;;;;;28.99;14.67;101715.13;5112582;28;20497;-87
2021/10/09 09:57:41;;;;;;;27.30;11.32;;;;;;;28.66;14.11;101717.41;5060765;28;20449;-81
2021/10/09 10:00:08;;;;;;;23.10;11.30;;;;;;;27.71;15.30;101716.94;5111795;28;20043;-79
2021/10/09 10:02:44;;;;;;;30.45;11.65;;;;;;;27.33;15.54;101706.78;5112438;28;20549;-83
2021/10/09 10:05:12;;;;;;;24.17;12.27;;;;;;;26.87;16.19;101710.25;5094711;28;20046;-82
2021/10/09 10:07:39;;;;;;;26.02;12.88;;;;;;;26.94;16.09;101711.25;5076917;28;20148;-82
2021/10/09 10:10:06;;;;;;;23.35;11.05;;;;;;;26.77;15.94;101709.63;5077205;28;20040;-85
2021/10/09 10:12:32;;;;;;;25.15;12.18;;;;;;;26.83;16.17;101708.94;5128113;27;20420;-82
2021/10/09 10:14:59;;;;;;;32.47;12.60;;;;;;;27.10;16.01;101706.75;5112531;28;20053;-81
2021/10/09 10:17:42;;;;;;;29.63;12.13;;;;;;;26.76;15.82;101707.94;5078055;28;20050;-82
2021/10/09 10:20:49;;;;;;;20.90;10.98;;;;;;;26.03;16.24;101702.41;5112898;28;20067;-82
2021/10/09 10:23:40;;;;;;;19.02;11.05;;;;;;;24.86;16.98;101695.09;5103064;28;20056;-82
2021/10/09 10:26:23;;;;;;;24.05;10.73;;;;;;;24.67;17.10;101687.22;5111620;28;20050;-79
2021/10/09 10:28:55;;;;;;;22.95;10.38;;;;;;;24.98;17.28;101692.94;5077808;28;20056;-86
2021/10/09 10:31:21;;;;;;;31.00;12.40;;;;;;;24.89;17.30;101687.69;5112308;28;20044;-79
2021/10/09 10:34:05;;;;;;;28.33;11.93;;;;;;;24.54;17.86;101687.66;5112148;28;20044;-79
2021/10/09 10:36:35;;;;;;;22.83;11.80;;;;;;;24.46;17.90;101687.59;5111511;28;20035;-81
2021/10/09 10:39:02;;;;;;;31.15;13.30;;;;;;;24.54;18.68;101687.66;5094945;28;20054;-78
2021/10/09 10:41:52;;;;;;;26.23;12.20;;;;;;;24.30;18.68;101689.22;5094305;28;20145;-79
2021/10/09 10:45:01;;;;;;;33.33;14.35;;;;;;;24.18;18.73;101679.66;5078946;28;20048;-85
2021/10/09 10:48:16;;;;;;;26.13;12.10;;;;;;;23.89;19.63;101669.97;5111054;28;20062;-80
2021/10/09 10:53:33;;;;;;;27.65;12.82;;;;;;;23.31;19.38;101672.13;5111715;28;20055;-81
2021/10/09 10:56:09;;;;;;;23.70;11.43;;;;;;;23.26;19.69;101671.75;5096357;28;20415;-83
2021/10/09 10:58:37;;;;;;;25.47;11.77;;;;;;;22.76;19.28;101673.84;5078952;28;20461;-83
2021/10/09 11:01:22;;;;;;;31.98;15.45;;;;;;;21.84;20.55;101674.50;5077988;28;20043;-80
2021/10/09 11:03:53;;;;;;;32.80;12.73;;;;;;;21.43;21.52;101667.41;5110806;28;20144;-86
2021/10/09 11:06:27;;;;;;;29.65;13.07;;;;;;;21.10;21.36;101664.06;5095580;28;20048;-83
2021/10/09 11:08:56;;;;;;;29.50;12.20;;;;;;;20.49;22.33;101663.13;5077262;28;20090;-83
2021/10/09 11:11:37;;;;;;;23.98;11.85;;;;;;;20.39;22.97;101664.94;5110973;28;20066;-84
2021/10/09 11:14:03;;;;;;;26.55;11.32;;;;;;;20.50;22.67;101659.47;5061258;28;20057;-82
2021/10/09 11:16:31;;;;;;;19.73;9.88;;;;;;;20.44;22.07;101660.00;5079095;28;20488;-79
2021/10/09 11:18:57;;;;;;;29.52;12.80;;;;;;;20.40;22.69;101655.00;5097569;28;20043;-84
2021/10/09 11:21:23;;;;;;;20.83;9.52;;;;;;;20.28;22.31;101646.19;5115157;28;20044;-85
2021/10/09 11:23:50;;;;;;;20.23;9.52;;;;;;;20.25;22.33;101652.69;5080475;28;20453;-81
2021/10/09 11:26:17;;;;;;;22.95;10.77;;;;;;;19.81;22.65;101650.13;5097227;28;20040;-80
2021/10/09 11:28:43;;;;;;;26.30;10.85;;;;;;;19.41;23.28;101650.78;5117506;27;20039;-81
2021/10/09 11:31:09;;;;;;;25.27;11.38;;;;;;;19.16;24.02;101647.41;5097777;28;20113;-83
2021/10/09 11:33:36;;;;;;;24.08;9.77;;;;;;;19.21;24.19;101644.38;5097529;28;20476;-79
2021/10/09 11:36:03;;;;;;;24.08;11.18;;;;;;;19.31;24.42;101641.78;5098086;28;20092;-83
2021/10/09 11:38:31;;;;;;;23.10;11.25;;;;;;;19.10;24.17;101642.56;5097841;28;20518;-84
2021/10/09 11:41:01;;;;;;;;;;;;;;;18.83;24.43;101638.44;5100706;28;20048;-81
2021/10/09 11:46:57;;;;;;;27.58;12.75;;;;;;;18.92;24.90;101634.19;5117976;28;20078;-83
2021/10/09 11:55:17;;;;;;;25.85;11.65;;;;;;;18.37;24.64;101636.75;5114960;28;20403;-82
2021/10/09 11:57:43;;;;;;;25.60;11.52;;;;;;;18.19;24.74;101622.97;5097700;28;20047;-86
2021/10/09 12:00:28;;;;;;;29.23;10.68;;;;;;;18.36;25.06;101621.66;5097846;28;20040;-84
2021/10/09 12:03:01;;;;;;;23.58;11.35;;;;;;;18.33;24.85;101614.72;5114970;28;20047;-81
2021/10/09 12:05:47;;;;;;;26.10;13.07;;;;;;;18.21;25.34;101611.16;5097034;28;20557;-81
2021/10/09 12:08:24;;;;;;;29.90;12.13;;;;;;;18.42;25.55;101615.81;5096083;28;20074;-79
2021/10/09 12:11:22;;;;;;;31.58;11.55;;;;;;;18.23;25.13;101603.88;5114225;28;20047;-79
2021/10/09 12:13:50;;;;;;;29.48;11.88;;;;;;;17.61;25.51;101607.75;5096326;28;20519;-82
2021/10/09 12:16:21;;;;;;;36.92;16.00;;;;;;;17.14;26.00;101610.31;5096132;28;20079;-80
2021/10/09 12:18:54;;;;;;;39.13;17.98;;;;;;;16.86;26.30;101612.31;5113263;28;20515;-80
2021/10/09 12:21:51;;;;;;;29.63;14.15;;;;;;;16.60;26.57;101599.00;5114675;28;20096;-79
2021/10/09 12:24:47;;;;;;;28.10;12.57;;;;;;;16.49;27.32;101594.44;5112889;28;20126;-80
2021/10/09 12:27:42;;;;;;;30.85;12.60;;;;;;;16.42;27.66;101597.66;5113735;28;20051;-84
2021/10/09 12:30:43;;;;;;;27.55;12.85;;;;;;;16.48;28.29;101591.88;5113548;28;20396;-79
2021/10/09 12:33:38;;;;;;;27.73;12.00;;;;;;;16.63;28.98;101589.94;5112653;28;20077;-82
2021/10/09 12:36:42;;;;;;;36.45;13.02;;;;;;;16.56;28.00;101586.84;5077955;28;20539;-82
2021/10/09 12:39:25;;;;;;;27.27;11.57;;;;;;;16.52;28.04;101584.50;5112373;28;20120;-81
2021/10/09 12:41:52;;;;;;;36.22;13.10;;;;;;;16.53;27.99;101584.38;5094693;28;20047;-79
2021/10/09 12:44:20;;;;;;;35.88;13.60;;;;;;;16.47;28.57;101584.81;5129519;27;20408;-85
2021/10/09 12:46:46;;;;;;;23.75;11.82;;;;;;;16.12;27.89;101585.50;5095169;28;20046;-82
2021/10/09 12:49:12;;;;;;;34.30;13.30;;;;;;;15.89;28.42;101579.97;5112557;28;20043;-82
2021/10/09 12:51:38;;;;;;;30.33;12.38;;;;;;;15.86;28.33;101577.47;5113227;28;20051;-82
2021/10/09 12:54:07;;;;;;;36.80;15.27;;;;;;;15.80;28.84;101576.06;5112240;28;20047;-79
2021/10/09 12:56:34;;;;;;;27.83;13.65;;;;;;;15.78;28.83;101566.47;5112787;28;20047;-82
2021/10/09 12:59:00;;;;;;;29.43;12.03;;;;;;;15.62;28.76;101567.50;5112093;28;20040;-81
2021/10/09 13:01:27;;;;;;;28.55;16.08;;;;;;;15.39;29.18;101571.75;5112943;28;20300;-80
2021/10/09 13:03:52;;;;;;;24.17;11.30;;;;;;;15.17;29.09;101566.97;5129474;27;20533;-78
2021/10/09 13:06:18;;;;;;;26.63;10.82;;;;;;;14.91;28.97;101577.53;5111353;28;20043;-82
2021/10/09 13:08:44;;;;;;;29.48;12.85;;;;;;;14.69;29.15;101570.94;5113042;28;20044;-84
2021/10/09 13:11:10;;;;;;;34.03;14.52;;;;;;;14.56;29.30;101564.63;5112674;28;20048;-79
2021/10/09 13:13:36;;;;;;;33.80;13.15;;;;;;;14.43;29.46;101561.03;5113012;28;20058;-80
2021/10/09 13:16:02;;;;;;;46.38;17.60;;;;;;;14.30;30.12;101558.28;5111799;28;20044;-82
2021/10/09 13:18:27;;;;;;;37.63;15.40;;;;;;;14.21;30.82;101557.06;5113142;27;20048;-78
2021/10/09 13:20:53;;;;;;;43.38;18.10;;;;;;;14.07;30.88;101555.25;5128601;27;20031;-83
2021/10/09 13:23:19;;;;;;;70.75;30.05;;;;;;;13.90;31.42;101553.63;5112553;28;20043;-84
2021/10/09 13:25:45;;;;;;;78.15;29.40;;;;;;;13.82;31.76;101554.09;5094045;28;20135;-80
2021/10/09 13:28:11;;;;;;;59.20;25.05;;;;;;;13.71;32.05;101549.41;5111393;27;20130;-80
2021/10/09 13:30:42;;;;;;;73.13;27.70;;;;;;;13.70;32.18;101544.19;5107298;28;20043;-85
2021/10/09 13:33:46;;;;;;;53.72;21.65;;;;;;;13.59;32.61;101544.81;5107610;27;20047;-80
2021/10/09 13:36:12;;;;;;;55.25;23.25;;;;;;;13.47;32.70;101540.25;5117772;27;20088;-76
2021/10/09 13:38:39;;;;;;;46.15;20.13;;;;;;;13.39;32.94;101538.88;5116381;27;20035;-76
2021/10/09 13:41:05;;;;;;;44.90;19.35;;;;;;;13.34;32.82;101540.09;5118141;27;20499;-77